createdAt,value
2018-12-04T00:00:14.966Z,94624.72
2018-12-04T00:02:44.381Z,94632.66
2018-12-04T00:05:13.671Z,94631.77
2018-12-04T00:07:43.247Z,94632.53
2018-12-04T00:10:13.140Z,94629.72
2018-12-04T00:12:42.700Z,94629.02
2018-12-04T00:15:12.562Z,94626.97
2018-12-04T00:17:42.124Z,94627.97
2018-12-04T00:20:12.305Z,94627.03
2018-12-04T00:22:41.764Z,94635.24
2018-12-04T00:25:11.414Z,94633.33
2018-12-04T00:27:40.976Z,94635.36
2018-12-04T00:30:10.748Z,94630.53
2018-12-04T00:32:40.792Z,94630.94
2018-12-04T00:35:10.406Z,94630.79
2018-12-04T00:37:40.012Z,94626.25
2018-12-04T00:40:10.204Z,94626.31
2018-12-04T00:42:39.644Z,94620.41
2018-12-04T00:45:10.355Z,94614.55
2018-12-04T00:47:39.883Z,94610.00
2018-12-04T00:50:09.599Z,94613.55
2018-12-04T00:52:39.338Z,94606.27
2018-12-04T00:55:08.879Z,94614.07
2018-12-04T00:57:38.561Z,94606.59
2018-12-04T01:00:10.005Z,94607.82
2018-12-04T01:02:40.657Z,94610.25
2018-12-04T01:05:10.164Z,94604.14
2018-12-04T01:07:39.700Z,94595.92
2018-12-04T01:10:09.200Z,94593.69
2018-12-04T01:12:38.492Z,94593.50
2018-12-04T01:15:08.213Z,94588.30
2018-12-04T01:17:37.979Z,94584.77
2018-12-04T01:20:07.609Z,94586.93
2018-12-04T01:22:37.115Z,94580.51
2018-12-04T01:25:07.117Z,94576.42
2018-12-04T01:27:36.440Z,94570.54
2018-12-04T01:30:07.105Z,94576.43
2018-12-04T01:32:36.520Z,94574.30
2018-12-04T01:35:06.374Z,94571.74
2018-12-04T01:37:35.853Z,94571.77
2018-12-04T01:40:05.914Z,94576.69
2018-12-04T01:42:35.384Z,94566.69
2018-12-04T01:45:05.911Z,94572.02
2018-12-04T01:47:36.966Z,94571.64
2018-12-04T01:50:06.472Z,94565.80
2018-12-04T01:52:36.289Z,94568.02
2018-12-04T01:55:06.142Z,94558.77
2018-12-04T01:57:35.593Z,94554.34
2018-12-04T02:00:05.526Z,94561.87
2018-12-04T02:02:35.077Z,94557.33
2018-12-04T02:05:04.702Z,94554.62
2018-12-04T02:07:34.323Z,94561.35
2018-12-04T02:10:04.869Z,94558.59
2018-12-04T02:12:34.459Z,94564.23
2018-12-04T02:15:04.696Z,94557.77
2018-12-04T02:17:34.449Z,94558.02
2018-12-04T02:20:03.942Z,94561.23
2018-12-04T02:22:33.646Z,94565.47
2018-12-04T02:25:03.336Z,94567.28
2018-12-04T02:27:33.178Z,94564.13
2018-12-04T02:30:03.391Z,94560.98
2018-12-04T02:32:32.954Z,94562.97
2018-12-04T02:35:02.829Z,94558.37
2018-12-04T02:37:32.275Z,94560.80
2018-12-04T02:40:01.975Z,94562.39
2018-12-04T02:42:31.665Z,94562.62
2018-12-04T02:45:01.218Z,94566.15
2018-12-04T02:47:30.702Z,94564.44
2018-12-04T02:50:00.524Z,94556.05
2018-12-04T02:52:29.972Z,94552.31
2018-12-04T02:54:59.776Z,94551.52
2018-12-04T02:57:29.212Z,94552.20
2018-12-04T02:59:58.763Z,94548.95
2018-12-04T03:02:28.593Z,94551.03
2018-12-04T03:04:58.079Z,94553.33
2018-12-04T03:07:27.284Z,94548.95
2018-12-04T03:09:56.906Z,94553.20
2018-12-04T03:12:26.307Z,94548.51
2018-12-04T03:14:55.800Z,94547.39
2018-12-04T03:17:25.469Z,94543.37
2018-12-04T03:19:54.980Z,94551.30
2018-12-04T03:22:24.576Z,94552.09
2018-12-04T03:24:54.099Z,94544.30
2018-12-04T03:27:23.429Z,94551.13
2018-12-04T03:29:53.077Z,94549.53
2018-12-04T03:32:22.525Z,94546.69
2018-12-04T03:34:52.188Z,94547.11
2018-12-04T03:37:21.880Z,94547.80
2018-12-04T03:39:51.278Z,94549.94
2018-12-04T03:42:21.097Z,94544.21
2018-12-04T03:44:50.382Z,94542.23
2018-12-04T03:47:19.985Z,94539.67
2018-12-04T03:49:49.803Z,94542.59
2018-12-04T03:52:19.321Z,94541.11
2018-12-04T03:54:48.766Z,94538.03
2018-12-04T03:57:18.542Z,94539.80
2018-12-04T03:59:47.929Z,94543.81
2018-12-04T04:02:17.328Z,94541.34
2018-12-04T04:04:47.379Z,94545.84
2018-12-04T04:07:16.959Z,94546.30
2018-12-04T04:09:46.673Z,94547.78
2018-12-04T04:12:16.356Z,94545.53
2018-12-04T04:14:45.855Z,94548.81
2018-12-04T04:17:15.376Z,94546.73
2018-12-04T04:19:51.555Z,94542.33
2018-12-04T04:22:20.828Z,94540.82
2018-12-04T04:24:50.205Z,94540.99
2018-12-04T04:27:19.882Z,94538.09
2018-12-04T04:29:49.331Z,94542.82
2018-12-04T04:32:18.750Z,94544.53
2018-12-04T04:34:48.607Z,94545.07
2018-12-04T04:37:17.830Z,94547.30
2018-12-04T04:39:47.405Z,94552.72
2018-12-04T04:42:17.135Z,94552.17
2018-12-04T04:44:46.619Z,94558.13
2018-12-04T04:47:16.105Z,94554.20
2018-12-04T04:49:46.060Z,94555.25
2018-12-04T04:52:15.540Z,94547.86
2018-12-04T04:54:44.843Z,94548.16
2018-12-04T04:57:15.101Z,94543.39
2018-12-04T04:59:44.721Z,94540.94
2018-12-04T05:02:14.129Z,94534.05
2018-12-04T05:04:44.251Z,94533.75
2018-12-04T05:07:13.729Z,94542.86
2018-12-04T05:09:43.169Z,94536.85
2018-12-04T05:12:12.843Z,94534.91
2018-12-04T05:14:42.325Z,94534.75
2018-12-04T05:17:12.032Z,94529.00
2018-12-04T05:19:41.570Z,94528.68
2018-12-04T05:22:11.128Z,94537.97
2018-12-04T05:24:40.531Z,94533.55
2018-12-04T05:27:09.830Z,94531.95
2018-12-04T05:29:39.700Z,94530.77
2018-12-04T05:32:09.176Z,94529.07
2018-12-04T05:34:38.794Z,94534.63
2018-12-04T05:37:08.460Z,94530.00
2018-12-04T05:39:37.847Z,94529.94
2018-12-04T05:42:07.365Z,94534.38
2018-12-04T05:44:36.836Z,94534.86
2018-12-04T05:47:06.099Z,94529.88
2018-12-04T05:49:35.918Z,94533.06
2018-12-04T05:52:05.627Z,94531.39
2018-12-04T05:54:35.165Z,94529.87
2018-12-04T05:57:04.881Z,94535.73
2018-12-04T05:59:34.148Z,94536.21
2018-12-04T06:02:03.494Z,94539.47
2018-12-04T06:04:34.334Z,94538.37
2018-12-04T06:07:03.873Z,94539.03
2018-12-04T06:09:33.324Z,94541.42
2018-12-04T06:12:03.007Z,94551.99
2018-12-04T06:14:32.616Z,94550.45
2018-12-04T06:17:02.391Z,94555.05
2018-12-04T06:19:32.235Z,94561.21
2018-12-04T06:22:02.042Z,94562.03
2018-12-04T06:24:31.907Z,94567.51
2018-12-04T06:27:01.648Z,94561.78
2018-12-04T06:29:31.524Z,94569.02
2018-12-04T06:32:01.468Z,94571.44
2018-12-04T06:34:31.126Z,94565.08
2018-12-04T06:37:00.794Z,94573.84
2018-12-04T06:39:30.309Z,94569.81
2018-12-04T06:41:59.957Z,94576.16
2018-12-04T06:44:30.545Z,94565.77
2018-12-04T06:47:00.985Z,94575.97
2018-12-04T06:49:30.673Z,94568.09
2018-12-04T06:52:00.234Z,94573.13
2018-12-04T06:54:29.693Z,94570.02
2018-12-04T06:56:59.477Z,94574.05
2018-12-04T06:59:29.120Z,94573.23
2018-12-04T07:01:58.994Z,94501.72
2018-12-04T07:04:28.458Z,94572.59
2018-12-04T07:06:57.952Z,94569.67
2018-12-04T07:09:27.292Z,94572.20
2018-12-04T07:12:02.316Z,94555.70
2018-12-04T07:14:28.189Z,94566.48
2018-12-04T07:16:57.849Z,94555.14
2018-12-04T07:19:27.383Z,94558.75
2018-12-04T07:21:56.934Z,94559.55
2018-12-04T07:24:26.144Z,94566.44
2018-12-04T07:26:56.336Z,94563.14
2018-12-04T07:29:25.920Z,94567.06
2018-12-04T07:31:55.703Z,94568.83
2018-12-04T07:34:25.403Z,94563.69
2018-12-04T07:36:55.173Z,94563.23
2018-12-04T07:39:25.070Z,94573.37
2018-12-04T07:41:55.014Z,94569.64
2018-12-04T07:44:24.544Z,94570.66
2018-12-04T07:46:54.281Z,94572.75
2018-12-04T07:49:24.233Z,94576.73
2018-12-04T07:51:53.645Z,94584.12
2018-12-04T07:54:23.076Z,94580.88
2018-12-04T07:56:52.832Z,94585.58
2018-12-04T07:59:22.244Z,94574.00
2018-12-04T08:01:51.945Z,94573.30
2018-12-04T08:04:21.629Z,94575.66
2018-12-04T08:06:51.289Z,94571.30
2018-12-04T08:09:21.085Z,94571.04
2018-12-04T08:11:50.657Z,94576.72
2018-12-04T08:14:20.170Z,94577.52
2018-12-04T08:16:49.950Z,94579.17
2018-12-04T08:19:19.521Z,94569.92
2018-12-04T08:21:49.335Z,94582.30
2018-12-04T08:24:18.848Z,94575.16
2018-12-04T08:26:48.922Z,94572.52
2018-12-04T08:29:19.061Z,94575.43
2018-12-04T08:31:48.324Z,94575.92
2018-12-04T08:34:18.689Z,94572.58
2018-12-04T08:36:48.620Z,94574.14
2018-12-04T08:39:18.213Z,94572.86
2018-12-04T08:41:47.625Z,94573.28
2018-12-04T08:44:17.666Z,94568.63
2018-12-04T08:46:46.895Z,94569.55
2018-12-04T08:49:16.160Z,94555.84
2018-12-04T08:51:45.649Z,94560.42
2018-12-04T08:54:15.121Z,94560.20
2018-12-04T08:56:44.788Z,94551.18
2018-12-04T08:59:14.236Z,94556.42
2018-12-04T09:01:43.575Z,94486.17
2018-12-04T09:04:13.218Z,94556.41
2018-12-04T09:06:42.562Z,94547.88
2018-12-04T09:09:12.629Z,94548.22
2018-12-04T09:11:42.239Z,94550.38
2018-12-04T09:14:11.691Z,94542.34
2018-12-04T09:16:41.101Z,94542.63
2018-12-04T09:19:11.132Z,94541.70
2018-12-04T09:21:40.616Z,94544.22
2018-12-04T09:24:10.485Z,94540.35
2018-12-04T09:26:39.948Z,94534.25
2018-12-04T09:29:09.240Z,94534.41
2018-12-04T09:31:38.854Z,94532.77
2018-12-04T09:34:08.687Z,94524.09
2018-12-04T09:36:38.069Z,94524.87
2018-12-04T09:39:08.523Z,94522.78
2018-12-04T09:41:39.126Z,94515.86
2018-12-04T09:44:08.460Z,94509.86
2018-12-04T09:46:37.705Z,94511.26
2018-12-04T09:49:07.315Z,94506.80
2018-12-04T09:51:37.085Z,94509.86
2018-12-04T09:54:06.527Z,94500.18
2018-12-04T09:56:36.038Z,94502.25
2018-12-04T09:59:05.664Z,94497.81
2018-12-04T10:01:35.252Z,94493.83
2018-12-04T10:04:04.863Z,94495.95
2018-12-04T10:06:34.160Z,94490.98
2018-12-04T10:09:03.933Z,94483.00
2018-12-04T10:11:33.408Z,94486.14
2018-12-04T10:14:03.133Z,94483.09
2018-12-04T10:16:32.722Z,94471.50
2018-12-04T10:19:02.856Z,94467.17
2018-12-04T10:21:32.432Z,94467.28
2018-12-04T10:24:01.980Z,94459.86
2018-12-04T10:26:31.749Z,94457.20
2018-12-04T10:29:01.270Z,94462.73
2018-12-04T10:31:31.008Z,94459.48
2018-12-04T10:34:00.453Z,94458.16
2018-12-04T10:36:29.894Z,94457.34
2018-12-04T10:38:59.509Z,94452.45
2018-12-04T10:41:29.102Z,94450.56
2018-12-04T10:43:58.622Z,94448.72
2018-12-04T10:46:28.229Z,94450.64
2018-12-04T10:48:57.632Z,94444.36
2018-12-04T10:51:27.605Z,94446.70
2018-12-04T10:53:57.410Z,94440.15
2018-12-04T10:56:26.970Z,94441.66
2018-12-04T10:58:56.356Z,94445.55
2018-12-04T11:01:31.338Z,94444.75
2018-12-04T11:04:00.887Z,94444.87
2018-12-04T11:06:30.212Z,94446.29
2018-12-04T11:08:59.844Z,94443.79
2018-12-04T11:11:29.424Z,94442.87
2018-12-04T11:13:59.155Z,94443.73
2018-12-04T11:16:29.042Z,94447.88
2018-12-04T11:18:58.698Z,94444.56
2018-12-04T11:21:28.175Z,94442.27
2018-12-04T11:23:57.512Z,94441.66
2018-12-04T11:26:27.521Z,94436.13
2018-12-04T11:28:57.148Z,94437.08
2018-12-04T11:31:26.573Z,94433.75
2018-12-04T11:33:55.986Z,94437.13
2018-12-04T11:36:25.507Z,94438.80
2018-12-04T11:38:55.247Z,94427.92
2018-12-04T11:41:24.808Z,94437.81
2018-12-04T11:43:54.320Z,94426.95
2018-12-04T11:46:23.828Z,94432.95
2018-12-04T11:48:53.214Z,94429.77
2018-12-04T11:51:22.639Z,94435.55
2018-12-04T11:53:52.584Z,94428.77
2018-12-04T11:56:22.051Z,94422.30
2018-12-04T11:58:51.505Z,94421.59
2018-12-04T12:01:26.124Z,94423.04
2018-12-04T12:03:55.581Z,94418.63
2018-12-04T12:06:25.104Z,94422.59
2018-12-04T12:08:54.653Z,94415.25
2018-12-04T12:11:23.988Z,94421.95
2018-12-04T12:13:53.609Z,94424.47
2018-12-04T12:16:23.472Z,94424.67
2018-12-04T12:18:52.922Z,94422.08
2018-12-04T12:21:22.353Z,94421.45
2018-12-04T12:23:52.137Z,94423.16
2018-12-04T12:26:21.755Z,94423.44
2018-12-04T12:28:51.083Z,94418.61
2018-12-04T12:31:20.915Z,94423.00
2018-12-04T12:33:50.480Z,94428.06
2018-12-04T12:36:19.984Z,94431.14
2018-12-04T12:38:49.277Z,94431.81
2018-12-04T12:41:18.738Z,94428.27
2018-12-04T12:43:48.289Z,94434.41
2018-12-04T12:46:18.390Z,94429.00
2018-12-04T12:48:47.774Z,94438.92
2018-12-04T12:51:17.329Z,94438.72
2018-12-04T12:53:46.858Z,94439.34
2018-12-04T12:56:16.701Z,94434.81
2018-12-04T12:58:46.099Z,94432.52
2018-12-04T13:01:15.996Z,94435.90
2018-12-04T13:03:45.411Z,94430.58
2018-12-04T13:06:15.098Z,94433.38
2018-12-04T13:08:44.834Z,94433.95
2018-12-04T13:11:14.318Z,94434.72
2018-12-04T13:13:43.818Z,94436.81
2018-12-04T13:16:13.373Z,94432.02
2018-12-04T13:18:42.957Z,94432.37
2018-12-04T13:21:12.489Z,94426.42
2018-12-04T13:23:42.332Z,94430.72
2018-12-04T13:26:11.807Z,94435.03
2018-12-04T13:28:41.346Z,94429.36
2018-12-04T13:31:11.109Z,94430.80
2018-12-04T13:33:40.667Z,94436.85
2018-12-04T13:36:10.282Z,94435.55
2018-12-04T13:38:39.632Z,94433.68
2018-12-04T13:41:09.203Z,94433.39
2018-12-04T13:43:38.607Z,94439.29
2018-12-04T13:46:08.558Z,94442.25
2018-12-04T13:48:38.282Z,94440.86
2018-12-04T13:51:07.692Z,94444.09
2018-12-04T13:53:37.528Z,94443.55
2018-12-04T13:56:07.061Z,94446.46
2018-12-04T13:58:36.991Z,94446.31
2018-12-04T14:01:06.316Z,94448.99
2018-12-04T14:03:35.870Z,94458.46
2018-12-04T14:06:05.361Z,94450.66
2018-12-04T14:08:35.029Z,94452.70
2018-12-04T14:11:04.272Z,94455.45
2018-12-04T14:13:34.019Z,94451.36
2018-12-04T14:16:03.353Z,94457.63
2018-12-04T14:18:32.768Z,94450.12
2018-12-04T14:21:02.531Z,94454.92
2018-12-04T14:23:31.929Z,94447.41
2018-12-04T14:26:01.405Z,94445.70
2018-12-04T14:28:31.832Z,94444.70
2018-12-04T14:31:01.305Z,94444.39
2018-12-04T14:33:30.902Z,94449.80
2018-12-04T14:36:00.492Z,94446.42
2018-12-04T14:38:30.161Z,94452.82
2018-12-04T14:40:59.818Z,94446.06
2018-12-04T14:43:29.410Z,94457.33
2018-12-04T14:45:59.408Z,94450.03
2018-12-04T14:48:28.914Z,94447.16
2018-12-04T14:50:58.432Z,94445.27
2018-12-04T14:53:28.006Z,94450.90
2018-12-04T14:55:57.817Z,94451.70
2018-12-04T14:58:27.274Z,94447.88
2018-12-04T15:00:56.908Z,94457.46
2018-12-04T15:03:26.669Z,94455.87
2018-12-04T15:05:56.355Z,94458.36
2018-12-04T15:08:26.142Z,94459.15
2018-12-04T15:10:55.749Z,94459.45
2018-12-04T15:13:26.013Z,94460.64
2018-12-04T15:15:55.486Z,94464.91
2018-12-04T15:18:25.414Z,94470.47
2018-12-04T15:20:54.764Z,94467.09
2018-12-04T15:23:24.221Z,94466.59
2018-12-04T15:25:54.379Z,94465.61
2018-12-04T15:28:23.882Z,94470.95
2018-12-04T15:30:53.327Z,94471.87
2018-12-04T15:33:22.772Z,94467.86
2018-12-04T15:35:52.190Z,94465.58
2018-12-04T15:38:21.787Z,94466.97
2018-12-04T15:40:51.158Z,94465.83
2018-12-04T15:43:20.649Z,94471.45
2018-12-04T15:45:50.260Z,94477.28
2018-12-04T15:48:19.851Z,94478.38
2018-12-04T15:50:49.620Z,94481.06
2018-12-04T15:53:19.289Z,94483.42
2018-12-04T15:55:49.060Z,94488.12
2018-12-04T15:58:18.487Z,94489.46
2018-12-04T16:00:48.170Z,94495.32
2018-12-04T16:03:17.575Z,94496.77
2018-12-04T16:05:47.060Z,94496.31
2018-12-04T16:08:17.242Z,94496.98
2018-12-04T16:10:46.818Z,94492.94
2018-12-04T16:13:17.589Z,94495.92
2018-12-04T16:15:47.071Z,94487.77
2018-12-04T16:18:16.606Z,94490.80
2018-12-04T16:20:46.097Z,94491.75
2018-12-04T16:23:16.005Z,94490.13
2018-12-04T16:25:45.602Z,94492.55
2018-12-04T16:28:15.241Z,94489.50
2018-12-04T16:30:44.677Z,94489.19
2018-12-04T16:33:14.228Z,94496.38
2018-12-04T16:35:43.937Z,94499.32
2018-12-04T16:38:13.249Z,94501.91
2018-12-04T16:40:42.730Z,94497.87
2018-12-04T16:43:12.466Z,94502.84
2018-12-04T16:45:41.995Z,94504.17
2018-12-04T16:48:11.452Z,94503.67
2018-12-04T16:50:41.161Z,94499.94
2018-12-04T16:53:10.957Z,94498.72
2018-12-04T16:55:40.604Z,94504.97
2018-12-04T16:58:10.525Z,94498.12
2018-12-04T17:00:40.005Z,94500.61
2018-12-04T17:03:09.889Z,94502.40
2018-12-04T17:05:39.257Z,94500.52
2018-12-04T17:08:09.180Z,94500.58
2018-12-04T17:10:38.999Z,94509.30
2018-12-04T17:13:08.779Z,94508.75
2018-12-04T17:15:38.333Z,94505.03
2018-12-04T17:18:08.102Z,94508.28
2018-12-04T17:20:37.937Z,94513.08
2018-12-04T17:23:07.394Z,94515.66
2018-12-04T17:25:37.161Z,94513.09
2018-12-04T17:28:06.867Z,94522.42
2018-12-04T17:30:36.256Z,94529.00
2018-12-04T17:33:05.928Z,94534.05
2018-12-04T17:35:35.499Z,94535.66
2018-12-04T17:38:04.804Z,94530.61
2018-12-04T17:40:34.634Z,94531.59
2018-12-04T17:43:04.302Z,94539.75
2018-12-04T17:45:33.906Z,94539.45
2018-12-04T17:48:03.683Z,94542.94
2018-12-04T17:50:33.419Z,94539.06
2018-12-04T17:53:02.889Z,94547.02
2018-12-04T17:55:32.984Z,94548.70
2018-12-04T17:58:04.302Z,94558.32
2018-12-04T18:00:34.336Z,94556.55
2018-12-04T18:03:03.635Z,94556.85
2018-12-04T18:05:34.576Z,94559.13
2018-12-04T18:08:04.161Z,94558.83
2018-12-04T18:10:33.531Z,94564.30
2018-12-04T18:13:03.066Z,94564.48
2018-12-04T18:15:34.571Z,94559.92
2018-12-04T18:18:05.384Z,94561.11
2018-12-04T18:20:34.941Z,94560.42
2018-12-04T18:23:04.490Z,94566.55
2018-12-04T18:25:34.326Z,94569.05
2018-12-04T18:28:03.732Z,94565.77
2018-12-04T18:30:33.648Z,94577.99
2018-12-04T18:33:02.978Z,94573.42
2018-12-04T18:35:32.440Z,94578.62
2018-12-04T18:38:02.296Z,94579.25
2018-12-04T18:40:32.191Z,94583.91
2018-12-04T18:43:01.542Z,94581.34
2018-12-04T18:45:32.727Z,94580.94
2018-12-04T18:48:02.396Z,94576.48
2018-12-04T18:50:32.242Z,94579.17
2018-12-04T18:53:01.780Z,94579.67
2018-12-04T18:55:31.324Z,94578.86
2018-12-04T18:58:00.585Z,94583.63
2018-12-04T19:00:30.057Z,94584.53
2018-12-04T19:02:59.740Z,94587.80
2018-12-04T19:05:29.320Z,94578.19
2018-12-04T19:07:58.647Z,94587.61
2018-12-04T19:10:28.588Z,94584.23
2018-12-04T19:12:58.171Z,94586.22
2018-12-04T19:15:27.960Z,94580.55
2018-12-04T19:17:57.718Z,94580.63
2018-12-04T19:20:26.930Z,94586.94
2018-12-04T19:22:56.453Z,94580.62
2018-12-04T19:25:26.125Z,94581.16
2018-12-04T19:27:55.545Z,94587.61
2018-12-04T19:30:25.489Z,94585.61
2018-12-04T19:32:54.935Z,94586.41
2018-12-04T19:35:24.376Z,94587.13
2018-12-04T19:37:55.694Z,94590.48
2018-12-04T19:40:25.298Z,94594.77
2018-12-04T19:42:55.143Z,94582.92
2018-12-04T19:45:24.629Z,94588.99
2018-12-04T19:47:53.978Z,94593.94
2018-12-04T19:50:23.746Z,94590.16
2018-12-04T19:52:53.237Z,94593.33
2018-12-04T19:55:22.800Z,94587.48
2018-12-04T19:57:52.331Z,94589.56
2018-12-04T20:00:21.962Z,94593.74
2018-12-04T20:02:51.341Z,94586.92
2018-12-04T20:05:21.292Z,94594.05
2018-12-04T20:07:50.780Z,94588.95
2018-12-04T20:10:20.187Z,94598.59
2018-12-04T20:12:49.644Z,94601.36
2018-12-04T20:15:19.045Z,94596.20
2018-12-04T20:17:48.818Z,94598.05
2018-12-04T20:20:18.181Z,94603.22
2018-12-04T20:22:47.841Z,94619.63
2018-12-04T20:25:17.412Z,94612.56
2018-12-04T20:27:47.252Z,94602.28
2018-12-04T20:30:16.998Z,94603.34
2018-12-04T20:32:46.188Z,94606.34
2018-12-04T20:35:16.116Z,94606.95
2018-12-04T20:37:45.536Z,94599.52
2018-12-04T20:40:14.972Z,94606.08
2018-12-04T20:42:44.874Z,94607.25
2018-12-04T20:45:15.287Z,94607.45
2018-12-04T20:47:45.156Z,94610.22
2018-12-04T20:50:14.731Z,94615.39
2018-12-04T20:52:44.127Z,94620.55
2018-12-04T20:55:13.517Z,94617.66
2018-12-04T20:57:42.827Z,94622.22
2018-12-04T21:00:13.260Z,94620.63
2018-12-04T21:02:42.533Z,94624.31
2018-12-04T21:05:11.946Z,94628.79
2018-12-04T21:07:41.848Z,94624.31
2018-12-04T21:10:11.169Z,94631.98
2018-12-04T21:12:40.576Z,94635.63
2018-12-04T21:15:10.449Z,94631.56
2018-12-04T21:17:39.690Z,94637.61
2018-12-04T21:20:09.221Z,94637.91
2018-12-04T21:22:38.709Z,94642.70
2018-12-04T21:25:08.012Z,94636.23
2018-12-04T21:27:43.135Z,94642.39
2018-12-04T21:30:17.954Z,94644.70
2018-12-04T21:32:52.680Z,94650.06
2018-12-04T21:35:27.297Z,94658.87
2018-12-04T21:38:02.178Z,94653.63
2018-12-04T21:41:07.772Z,94659.79
2018-12-04T21:43:42.572Z,94667.45
2018-12-04T21:46:17.219Z,94666.03
2018-12-04T21:48:47.631Z,94667.44
2018-12-04T21:51:16.919Z,94663.75
2018-12-04T21:53:46.322Z,94669.22
2018-12-04T21:56:16.147Z,94661.68
2018-12-04T21:58:45.903Z,94668.81
2018-12-04T22:01:15.327Z,94670.69
2018-12-04T22:03:45.288Z,94676.08
2018-12-04T22:06:14.756Z,94671.41
2018-12-04T22:08:44.328Z,94667.45
2018-12-04T22:11:14.209Z,94667.55
2018-12-04T22:13:43.593Z,94668.44
2018-12-04T22:16:13.316Z,94673.77
2018-12-04T22:18:42.588Z,94670.77
2018-12-04T22:21:12.090Z,94675.95
2018-12-04T22:23:41.400Z,94674.39
2018-12-04T22:26:10.817Z,94679.65
2018-12-04T22:28:40.365Z,94680.64
2018-12-04T22:31:09.968Z,94682.13
2018-12-04T22:33:39.441Z,94682.05
2018-12-04T22:36:09.328Z,94682.34
2018-12-04T22:38:38.797Z,94676.27
2018-12-04T22:41:08.300Z,94688.31
2018-12-04T22:43:37.892Z,94685.12
2018-12-04T22:46:07.325Z,94676.28
2018-12-04T22:48:36.885Z,94673.16
2018-12-04T22:51:06.525Z,94678.52
2018-12-04T22:53:35.956Z,94678.70
2018-12-04T22:56:05.571Z,94683.69
2018-12-04T22:58:34.973Z,94679.13
2018-12-04T23:01:04.549Z,94682.99
2018-12-04T23:03:35.888Z,94684.96
2018-12-04T23:06:05.571Z,94686.15
2018-12-04T23:08:35.412Z,94683.27
2018-12-04T23:11:05.027Z,94684.06
2018-12-04T23:13:34.482Z,94684.17
2018-12-04T23:16:04.170Z,94684.86
2018-12-04T23:18:33.887Z,94681.39
2018-12-04T23:21:03.388Z,94691.06
2018-12-04T23:23:32.920Z,94692.73
2018-12-04T23:26:02.377Z,94692.23
2018-12-04T23:28:33.264Z,94698.27
2018-12-04T23:31:02.545Z,94700.67
2018-12-04T23:33:31.857Z,94695.39
2018-12-04T23:36:01.634Z,94700.55
2018-12-04T23:38:31.076Z,94706.45
2018-12-04T23:41:00.379Z,94706.26
2018-12-04T23:43:29.864Z,94710.63
2018-12-04T23:45:59.284Z,94706.14
2018-12-04T23:48:28.962Z,94706.75
2018-12-04T23:50:58.458Z,94710.84
2018-12-04T23:53:28.232Z,94711.23
2018-12-04T23:55:57.692Z,94718.80
2018-12-04T23:58:27.498Z,94715.41
